METAR Data
IDs: Format: Raw Decoded Include TAF

Data at: 2333 UTC 25 Oct 2021

KF44 252315Z AUTO 00000KT 10SM CLR 29/21 A2989 RMK AO2
KF44 252255Z AUTO 00000KT 10SM CLR 30/21 A2989 RMK AO2
KF44 252235Z AUTO 17003KT 10SM CLR 31/20 A2989 RMK AO2
KF44 252215Z AUTO 21003KT 10SM CLR 31/20 A2989 RMK AO2
KF44 252155Z AUTO 19003KT 10SM CLR 31/20 A2989 RMK AO2 P0010
KF44 252055Z AUTO 14003KT 10SM CLR 31/21 A2989 RMK AO2
KF44 252035Z AUTO 00000KT 10SM CLR 31/21 A2990 RMK AO2
KF44 252015Z AUTO 00000KT 10SM CLR 31/21 A2990 RMK AO2
KF44 251955Z AUTO 21005KT 10SM CLR 31/22 A2991 RMK AO2
KF44 251935Z AUTO 19004KT 10SM CLR 30/21 A2991 RMK AO2
KF44 251915Z AUTO 14003KT 10SM CLR 31/20 A2992 RMK AO2
KF44 251855Z AUTO 21003KT 10SM CLR 31/20 A2993 RMK AO2
KF44 251835Z AUTO 00000KT 10SM CLR 30/20 A2993 RMK AO2
KF44 251815Z AUTO 23004KT 10SM CLR 30/20 A2994 RMK AO2
KF44 251755Z AUTO 00000KT 10SM CLR 29/19 A2995 RMK AO2
KF44 251735Z AUTO 15003KT 10SM CLR 29/19 A2995 RMK AO2
KF44 251715Z AUTO 13003KT 10SM CLR 28/19 A2996 RMK AO2
KF44 251655Z AUTO 12003KT 10SM CLR 28/18 A2996 RMK AO2
KF44 251635Z AUTO 01004KT 10SM CLR 27/18 A2997 RMK AO2
KF44 251615Z AUTO 00000KT 10SM CLR 27/18 A2997 RMK AO2
KF44 251555Z AUTO 00000KT 10SM CLR 26/17 A2997 RMK AO2
KF44 251535Z AUTO 09003KT 10SM CLR 26/17 A2998 RMK AO2
KF44 251515Z AUTO 12004KT 10SM CLR 25/17 A2998 RMK AO2
KF44 251455Z AUTO 12004KT 10SM CLR 24/17 A2998 RMK AO2
KF44 251435Z AUTO 13004KT 10SM CLR 23/17 A2998 RMK AO2
KF44 251415Z AUTO 09003KT 10SM CLR 22/17 A2997 RMK AO2
KF44 251355Z AUTO 08005KT 10SM CLR 21/17 A2997 RMK AO2
KF44 251335Z AUTO 00000KT 10SM CLR 20/17 A2996 RMK AO2
KF44 251315Z AUTO 00000KT 10SM CLR 19/17 A2996 RMK AO2
KF44 251255Z AUTO 00000KT 10SM CLR 19/16 A2995 RMK AO2
KF44 251235Z AUTO 00000KT 10SM CLR 19/16 A2994 RMK AO2
KF44 251215Z AUTO 03003KT 10SM CLR 20/16 A2994 RMK AO2
KF44 251155Z AUTO 00000KT 10SM SCT035 20/17 A2994 RMK AO2
KF44 251135Z AUTO 00000KT 10SM BKN037 BKN047 21/17 A2994 RMK AO2
KF44 251115Z AUTO 02004KT 10SM BKN041 OVC048 21/18 A2993 RMK AO2
KF44 251055Z AUTO 02004KT 10SM BKN044 OVC050 22/18 A2993 RMK AO2
KF44 251035Z AUTO 01005KT 10SM SCT010 SCT030 OVC048 22/20 A2993 RMK AO2
KF44 251015Z AUTO 36005KT 10SM SCT008 SCT030 OVC042 22/20 A2992 RMK AO2
KF44 250955Z AUTO 00000KT 10SM OVC040 22/20 A2991 RMK AO2
KF44 250935Z AUTO 00000KT 10SM OVC042 22/20 A2990 RMK AO2
KF44 250915Z AUTO 00000KT 10SM OVC044 22/20 A2990 RMK AO2
KF44 250855Z AUTO 00000KT 10SM OVC044 22/20 A2990 RMK AO2
KF44 250835Z AUTO 00000KT 10SM OVC044 22/20 A2990 RMK AO2
KF44 250815Z AUTO 00000KT 10SM OVC044 22/20 A2990 RMK AO2
KF44 250755Z AUTO 00000KT 10SM OVC044 22/20 A2990 RMK AO2
KF44 250735Z AUTO 00000KT 10SM OVC046 22/20 A2990 RMK AO2
KF44 250715Z AUTO 00000KT 10SM OVC048 22/20 A2990 RMK AO2
KF44 250655Z AUTO 00000KT 10SM OVC048 22/20 A2990 RMK AO2
KF44 250635Z AUTO 00000KT 10SM OVC050 22/20 A2990 RMK AO2
KF44 250615Z AUTO 00000KT 10SM OVC050 22/20 A2990 RMK AO2
KF44 250555Z AUTO 00000KT 10SM BKN050 22/20 A2990 RMK AO2
KF44 250535Z AUTO 00000KT 10SM CLR 22/20 A2989 RMK AO2
KF44 250515Z AUTO 18006KT 10SM CLR 21/20 A2987 RMK AO2
KF44 250455Z AUTO 00000KT 10SM CLR 22/19 A2987 RMK AO2
KF44 250435Z AUTO 00000KT 10SM CLR 22/19 A2987 RMK AO2
KF44 250415Z AUTO 17003KT 10SM CLR 21/19 A2986 RMK AO2
KF44 250355Z AUTO 00000KT 10SM CLR 21/19 A2986 RMK AO2
KF44 250335Z AUTO 00000KT 10SM CLR 22/19 A2984 RMK AO2
KF44 250315Z AUTO 00000KT 10SM CLR 21/18 A2983 RMK AO2
KF44 250255Z AUTO 00000KT 10SM CLR 21/18 A2983 RMK AO2
KF44 250235Z AUTO 00000KT 10SM CLR 23/19 A2983 RMK AO2
KF44 250215Z AUTO 18003KT 10SM CLR 23/19 A2982 RMK AO2
KF44 250155Z AUTO 00000KT 10SM CLR 23/18 A2982 RMK AO2
KF44 250135Z AUTO 17003KT 10SM CLR 23/19 A2982 RMK AO2
KF44 250115Z AUTO 00000KT 10SM CLR 23/18 A2982 RMK AO2
KF44 250055Z AUTO 00000KT 10SM CLR 23/18 A2981 RMK AO2
KF44 250035Z AUTO 00000KT 10SM CLR 25/18 A2981 RMK AO2
KF44 250015Z AUTO 00000KT 10SM CLR 26/18 A2980 RMK AO2
KF44 242355Z AUTO 00000KT 10SM CLR 26/18 A2980 RMK AO2
KF44 242335Z AUTO 00000KT 10SM CLR 27/19 A2980 RMK AO2
KF44 242315Z AUTO 20005KT 10SM CLR 27/19 A2978 RMK AO2
KF44 242255Z AUTO 21004KT 10SM CLR 28/19 A2978 RMK AO2
KF44 242235Z AUTO 20009G14KT 10SM SCT046 SCT060 29/18 A2978 RMK AO2
KF44 242215Z AUTO 20005KT 10SM SCT048 SCT060 29/19 A2979 RMK AO2
KF44 242155Z AUTO 19010KT 10SM SCT048 OVC050 29/18 A2979 RMK AO2
KF44 242135Z AUTO 20006KT 10SM SCT050 28/18 A2979 RMK AO2
KF44 242115Z AUTO 19011KT 10SM SCT050 30/19 A2978 RMK AO2
KF44 242055Z AUTO 19011G16KT 10SM SCT043 SCT050 SCT055 29/18 A2978 RMK AO2
KF44 242035Z AUTO 19011G15KT 10SM SCT039 SCT046 BKN050 30/19 A2979 RMK AO2
KF44 242015Z AUTO 17009KT 10SM BKN037 BKN050 29/19 A2979 RMK AO2
KF44 241955Z AUTO 21006KT 10SM SCT035 SCT042 SCT050 29/19 A2979 RMK AO2
KF44 241935Z AUTO 19012KT 10SM SCT035 BKN047 28/19 A2980 RMK AO2
KF44 241915Z AUTO 19012G16KT 10SM SCT033 SCT046 SCT050 28/19 A2981 RMK AO2
KF44 241855Z AUTO 19012G17KT 10SM SCT033 SCT050 28/19 A2982 RMK AO2
KF44 241835Z AUTO 19011G17KT 10SM SCT027 SCT033 BKN050 28/20 A2983 RMK AO2
KF44 241815Z AUTO 18011G18KT 150V210 10SM BKN027 BKN034 OVC049 28/20 A2984 RMK AO2
KF44 241755Z AUTO 19008KT 10SM BKN025 BKN035 OVC049 26/20 A2986 RMK AO2
KF44 241735Z AUTO 19009G15KT 10SM BKN023 BKN033 OVC050 26/20 A2987 RMK AO2
KF44 241715Z AUTO 17010KT 10SM BKN021 26/20 A2988 RMK AO2
KF44 241655Z AUTO 20009G16KT 10SM BKN019 BKN049 26/20 A2988 RMK AO2
KF44 241635Z AUTO 19008KT 10SM BKN019 BKN049 25/20 A2988 RMK AO2
KF44 241615Z AUTO 17010G14KT 10SM SCT012 SCT031 BKN040 25/20 A2988 RMK AO2
KF44 241555Z AUTO 17010G14KT 10SM OVC012 24/20 A2989 RMK AO2
KF44 241535Z AUTO 18010KT 10SM OVC010 23/19 A2989 RMK AO2
KF44 241515Z AUTO 18008KT 10SM OVC010 22/18 A2990 RMK AO2
KF44 241455Z AUTO 18009KT 10SM BKN012 OVC029 21/18 A2990 RMK AO2
KF44 241435Z AUTO 10SM OVC012 21/18 A2990 RMK AO2
KF44 241415Z AUTO 20003KT 10SM BKN012 OVC028 21/18 A2990 RMK AO2
KF44 241355Z AUTO 19003KT 10SM SCT012 BKN028 OVC034 20/17 A2989 RMK AO2
KF44 241335Z AUTO 18004KT 10SM SCT028 OVC034 20/17 A2988 RMK AO2
KF44 241315Z AUTO 19003KT 10SM BKN026 OVC034 19/17 A2987 RMK AO2
KF44 241255Z AUTO 17003KT 10SM BKN026 BKN031 18/17 A2987 RMK AO2
KF44 241235Z AUTO 00000KT 10SM SCT031 18/17 A2986 RMK AO2
KF44 241215Z AUTO 16004KT 10SM CLR 19/17 A2985 RMK AO2
KF44 241155Z AUTO 17005KT 10SM CLR 19/17 A2984 RMK AO2
KF44 241135Z AUTO 17007KT 10SM CLR 19/17 A2984 RMK AO2